sensor_id;sensor_type;location;lat;lon;timestamp;P1;durP1;ratioP1;P2;durP2;ratioP2
15102;SDS011;7652;53.584;9.998;2023-04-03T00:00:22;5.03;;;1.60;;
15102;SDS011;7652;53.584;9.998;2023-04-03T00:03:27;9.07;;;2.53;;
15102;SDS011;7652;53.584;9.998;2023-04-03T00:06:30;3.60;;;1.37;;
15102;SDS011;7652;53.584;9.998;2023-04-03T00:09:33;3.27;;;1.27;;
15102;SDS011;7652;53.584;9.998;2023-04-03T00:12:36;4.37;;;1.63;;
15102;SDS011;7652;53.584;9.998;2023-04-03T00:15:39;4.50;;;1.80;;
15102;SDS011;7652;53.584;9.998;2023-04-03T00:18:44;2.93;;;1.37;;
15102;SDS011;7652;53.584;9.998;2023-04-03T00:21:47;3.40;;;1.40;;
15102;SDS011;7652;53.584;9.998;2023-04-03T00:24:50;5.20;;;1.40;;
15102;SDS011;7652;53.584;9.998;2023-04-03T00:27:53;3.73;;;1.63;;
15102;SDS011;7652;53.584;9.998;2023-04-03T00:30:56;3.07;;;1.57;;
15102;SDS011;7652;53.584;9.998;2023-04-03T00:34:01;2.27;;;1.50;;
15102;SDS011;7652;53.584;9.998;2023-04-03T00:37:04;7.37;;;2.03;;
15102;SDS011;7652;53.584;9.998;2023-04-03T00:40:08;4.47;;;2.07;;
15102;SDS011;7652;53.584;9.998;2023-04-03T00:43:13;4.13;;;1.40;;
15102;SDS011;7652;53.584;9.998;2023-04-03T00:46:17;2.60;;;1.63;;
15102;SDS011;7652;53.584;9.998;2023-04-03T00:49:21;6.03;;;1.97;;
15102;SDS011;7652;53.584;9.998;2023-04-03T00:52:25;7.00;;;1.93;;
15102;SDS011;7652;53.584;9.998;2023-04-03T00:55:30;4.73;;;1.90;;
15102;SDS011;7652;53.584;9.998;2023-04-03T00:58:36;2.47;;;1.50;;
15102;SDS011;7652;53.584;9.998;2023-04-03T01:01:42;5.27;;;1.97;;
15102;SDS011;7652;53.584;9.998;2023-04-03T01:04:46;2.43;;;1.60;;
15102;SDS011;7652;53.584;9.998;2023-04-03T01:07:49;7.23;;;1.63;;
15102;SDS011;7652;53.584;9.998;2023-04-03T01:10:54;4.73;;;1.80;;
15102;SDS011;7652;53.584;9.998;2023-04-03T01:13:57;3.63;;;1.90;;
15102;SDS011;7652;53.584;9.998;2023-04-03T01:17:01;6.37;;;1.90;;
15102;SDS011;7652;53.584;9.998;2023-04-03T01:20:18;3.40;;;1.60;;
15102;SDS011;7652;53.584;9.998;2023-04-03T01:23:52;4.20;;;1.97;;
15102;SDS011;7652;53.584;9.998;2023-04-03T01:27:01;2.57;;;1.50;;
15102;SDS011;7652;53.584;9.998;2023-04-03T01:30:07;4.33;;;1.60;;
15102;SDS011;7652;53.584;9.998;2023-04-03T01:33:12;2.47;;;1.47;;
15102;SDS011;7652;53.584;9.998;2023-04-03T01:36:17;5.13;;;1.80;;
15102;SDS011;7652;53.584;9.998;2023-04-03T01:39:21;3.57;;;1.80;;
15102;SDS011;7652;53.584;9.998;2023-04-03T01:42:25;3.50;;;1.47;;
15102;SDS011;7652;53.584;9.998;2023-04-03T01:45:28;3.83;;;1.50;;
15102;SDS011;7652;53.584;9.998;2023-04-03T01:48:32;5.30;;;1.53;;
15102;SDS011;7652;53.584;9.998;2023-04-03T01:51:36;4.83;;;1.40;;
15102;SDS011;7652;53.584;9.998;2023-04-03T01:54:38;4.83;;;1.73;;
15102;SDS011;7652;53.584;9.998;2023-04-03T01:57:41;3.73;;;1.60;;
15102;SDS011;7652;53.584;9.998;2023-04-03T02:00:44;2.37;;;1.50;;
15102;SDS011;7652;53.584;9.998;2023-04-03T02:03:49;3.33;;;1.30;;
15102;SDS011;7652;53.584;9.998;2023-04-03T02:06:52;6.60;;;2.60;;
15102;SDS011;7652;53.584;9.998;2023-04-03T02:09:55;2.97;;;1.43;;
15102;SDS011;7652;53.584;9.998;2023-04-03T02:12:58;3.40;;;1.40;;
15102;SDS011;7652;53.584;9.998;2023-04-03T02:16:05;2.43;;;1.60;;
15102;SDS011;7652;53.584;9.998;2023-04-03T02:19:12;5.00;;;1.63;;
15102;SDS011;7652;53.584;9.998;2023-04-03T02:22:17;2.33;;;1.30;;
15102;SDS011;7652;53.584;9.998;2023-04-03T02:25:20;2.77;;;1.43;;
15102;SDS011;7652;53.584;9.998;2023-04-03T02:28:23;2.17;;;1.57;;
15102;SDS011;7652;53.584;9.998;2023-04-03T02:31:26;6.17;;;1.67;;
15102;SDS011;7652;53.584;9.998;2023-04-03T02:34:31;4.43;;;2.37;;
15102;SDS011;7652;53.584;9.998;2023-04-03T02:37:34;4.50;;;1.60;;
15102;SDS011;7652;53.584;9.998;2023-04-03T02:40:37;7.43;;;1.77;;
15102;SDS011;7652;53.584;9.998;2023-04-03T02:43:40;6.10;;;1.83;;
15102;SDS011;7652;53.584;9.998;2023-04-03T02:46:43;3.60;;;1.43;;
15102;SDS011;7652;53.584;9.998;2023-04-03T02:49:47;2.43;;;1.33;;
15102;SDS011;7652;53.584;9.998;2023-04-03T02:52:50;3.23;;;1.63;;
15102;SDS011;7652;53.584;9.998;2023-04-03T02:55:53;3.30;;;1.50;;
15102;SDS011;7652;53.584;9.998;2023-04-03T02:58:56;3.73;;;1.67;;
15102;SDS011;7652;53.584;9.998;2023-04-03T03:01:59;3.37;;;1.37;;
15102;SDS011;7652;53.584;9.998;2023-04-03T03:05:04;7.10;;;1.60;;
15102;SDS011;7652;53.584;9.998;2023-04-03T03:08:07;2.63;;;1.00;;
15102;SDS011;7652;53.584;9.998;2023-04-03T03:11:11;4.87;;;1.30;;
15102;SDS011;7652;53.584;9.998;2023-04-03T03:14:14;2.87;;;1.37;;
15102;SDS011;7652;53.584;9.998;2023-04-03T03:17:17;5.53;;;1.67;;
15102;SDS011;7652;53.584;9.998;2023-04-03T03:20:21;4.60;;;1.47;;
15102;SDS011;7652;53.584;9.998;2023-04-03T03:23:24;7.43;;;1.67;;
15102;SDS011;7652;53.584;9.998;2023-04-03T03:26:29;3.53;;;1.40;;
15102;SDS011;7652;53.584;9.998;2023-04-03T03:29:32;4.23;;;1.50;;
15102;SDS011;7652;53.584;9.998;2023-04-03T03:32:35;2.63;;;1.40;;
15102;SDS011;7652;53.584;9.998;2023-04-03T03:35:40;3.83;;;1.70;;
15102;SDS011;7652;53.584;9.998;2023-04-03T03:38:43;3.30;;;1.60;;
15102;SDS011;7652;53.584;9.998;2023-04-03T03:41:46;4.40;;;1.30;;
15102;SDS011;7652;53.584;9.998;2023-04-03T03:44:50;3.27;;;1.20;;
15102;SDS011;7652;53.584;9.998;2023-04-03T03:47:53;4.33;;;1.53;;
15102;SDS011;7652;53.584;9.998;2023-04-03T03:50:58;4.60;;;1.63;;
15102;SDS011;7652;53.584;9.998;2023-04-03T03:54:01;4.13;;;1.77;;
15102;SDS011;7652;53.584;9.998;2023-04-03T03:57:04;2.03;;;1.43;;
15102;SDS011;7652;53.584;9.998;2023-04-03T04:00:07;4.20;;;1.67;;
15102;SDS011;7652;53.584;9.998;2023-04-03T04:03:11;4.07;;;1.50;;
15102;SDS011;7652;53.584;9.998;2023-04-03T04:06:16;3.00;;;1.73;;
15102;SDS011;7652;53.584;9.998;2023-04-03T04:09:19;2.63;;;1.53;;
15102;SDS011;7652;53.584;9.998;2023-04-03T04:12:22;2.87;;;1.80;;
15102;SDS011;7652;53.584;9.998;2023-04-03T04:15:26;4.20;;;1.83;;
15102;SDS011;7652;53.584;9.998;2023-04-03T04:18:29;4.03;;;1.43;;
15102;SDS011;7652;53.584;9.998;2023-04-03T04:21:33;2.67;;;1.77;;
15102;SDS011;7652;53.584;9.998;2023-04-03T04:24:36;4.70;;;1.97;;
15102;SDS011;7652;53.584;9.998;2023-04-03T04:27:40;4.73;;;1.97;;
15102;SDS011;7652;53.584;9.998;2023-04-03T04:30:43;3.03;;;2.03;;
15102;SDS011;7652;53.584;9.998;2023-04-03T04:33:46;3.03;;;1.57;;
15102;SDS011;7652;53.584;9.998;2023-04-03T04:36:51;7.37;;;2.87;;
15102;SDS011;7652;53.584;9.998;2023-04-03T04:39:55;3.93;;;1.90;;
15102;SDS011;7652;53.584;9.998;2023-04-03T04:42:58;3.13;;;1.90;;
15102;SDS011;7652;53.584;9.998;2023-04-03T04:46:01;3.87;;;1.77;;
15102;SDS011;7652;53.584;9.998;2023-04-03T04:49:06;3.03;;;1.57;;
15102;SDS011;7652;53.584;9.998;2023-04-03T04:52:10;3.00;;;1.80;;
15102;SDS011;7652;53.584;9.998;2023-04-03T04:55:13;6.00;;;2.87;;
15102;SDS011;7652;53.584;9.998;2023-04-03T04:58:16;4.20;;;2.30;;
15102;SDS011;7652;53.584;9.998;2023-04-03T05:01:19;3.57;;;2.37;;
15102;SDS011;7652;53.584;9.998;2023-04-03T05:04:22;6.37;;;2.87;;
15102;SDS011;7652;53.584;9.998;2023-04-03T05:07:27;3.93;;;2.37;;
15102;SDS011;7652;53.584;9.998;2023-04-03T05:10:30;4.00;;;2.17;;
15102;SDS011;7652;53.584;9.998;2023-04-03T05:13:33;6.77;;;2.27;;
15102;SDS011;7652;53.584;9.998;2023-04-03T05:16:36;3.63;;;2.00;;
15102;SDS011;7652;53.584;9.998;2023-04-03T05:19:39;6.37;;;2.13;;
15102;SDS011;7652;53.584;9.998;2023-04-03T05:22:43;4.83;;;1.90;;
15102;SDS011;7652;53.584;9.998;2023-04-03T05:25:46;3.83;;;2.00;;
15102;SDS011;7652;53.584;9.998;2023-04-03T05:28:50;3.43;;;1.70;;
15102;SDS011;7652;53.584;9.998;2023-04-03T05:31:53;6.03;;;2.20;;
15102;SDS011;7652;53.584;9.998;2023-04-03T05:34:56;5.43;;;2.00;;
15102;SDS011;7652;53.584;9.998;2023-04-03T05:38:03;3.47;;;2.00;;
15102;SDS011;7652;53.584;9.998;2023-04-03T05:41:06;3.00;;;1.67;;
15102;SDS011;7652;53.584;9.998;2023-04-03T05:44:09;3.73;;;2.00;;
15102;SDS011;7652;53.584;9.998;2023-04-03T05:47:12;3.80;;;2.23;;
15102;SDS011;7652;53.584;9.998;2023-04-03T05:50:15;4.70;;;1.90;;
15102;SDS011;7652;53.584;9.998;2023-04-03T05:53:20;4.77;;;2.20;;
15102;SDS011;7652;53.584;9.998;2023-04-03T05:56:26;5.23;;;2.60;;
15102;SDS011;7652;53.584;9.998;2023-04-03T05:59:29;5.00;;;2.00;;
15102;SDS011;7652;53.584;9.998;2023-04-03T06:02:33;5.03;;;2.30;;
15102;SDS011;7652;53.584;9.998;2023-04-03T06:05:37;4.97;;;2.10;;
15102;SDS011;7652;53.584;9.998;2023-04-03T06:08:42;4.87;;;2.17;;
15102;SDS011;7652;53.584;9.998;2023-04-03T06:11:45;5.03;;;1.90;;
15102;SDS011;7652;53.584;9.998;2023-04-03T06:14:49;5.67;;;2.13;;
15102;SDS011;7652;53.584;9.998;2023-04-03T06:17:52;3.83;;;2.17;;
15102;SDS011;7652;53.584;9.998;2023-04-03T06:20:55;3.77;;;1.70;;
15102;SDS011;7652;53.584;9.998;2023-04-03T06:24:00;3.30;;;1.73;;
15102;SDS011;7652;53.584;9.998;2023-04-03T06:27:03;2.53;;;1.53;;
15102;SDS011;7652;53.584;9.998;2023-04-03T06:30:07;7.23;;;2.33;;
15102;SDS011;7652;53.584;9.998;2023-04-03T06:33:10;5.87;;;1.83;;
15102;SDS011;7652;53.584;9.998;2023-04-03T06:36:13;7.67;;;1.97;;
15102;SDS011;7652;53.584;9.998;2023-04-03T06:39:22;10.23;;;2.27;;
15102;SDS011;7652;53.584;9.998;2023-04-03T06:42:25;6.43;;;1.97;;
15102;SDS011;7652;53.584;9.998;2023-04-03T06:45:28;7.53;;;2.17;;
15102;SDS011;7652;53.584;9.998;2023-04-03T06:48:31;2.13;;;1.50;;
15102;SDS011;7652;53.584;9.998;2023-04-03T06:51:35;5.63;;;1.30;;
15102;SDS011;7652;53.584;9.998;2023-04-03T06:54:39;3.57;;;1.83;;
15102;SDS011;7652;53.584;9.998;2023-04-03T06:57:43;2.23;;;1.27;;
15102;SDS011;7652;53.584;9.998;2023-04-03T07:00:46;3.50;;;1.37;;
15102;SDS011;7652;53.584;9.998;2023-04-03T07:03:49;3.73;;;1.83;;
15102;SDS011;7652;53.584;9.998;2023-04-03T07:06:52;3.50;;;1.37;;
15102;SDS011;7652;53.584;9.998;2023-04-03T07:09:57;3.93;;;1.47;;
15102;SDS011;7652;53.584;9.998;2023-04-03T07:13:00;3.47;;;1.60;;
15102;SDS011;7652;53.584;9.998;2023-04-03T07:16:04;6.27;;;1.27;;
15102;SDS011;7652;53.584;9.998;2023-04-03T07:19:07;1.90;;;1.10;;
15102;SDS011;7652;53.584;9.998;2023-04-03T07:22:11;2.50;;;1.13;;
15102;SDS011;7652;53.584;9.998;2023-04-03T07:25:15;1.63;;;1.10;;
15102;SDS011;7652;53.584;9.998;2023-04-03T07:28:19;3.67;;;2.00;;
15102;SDS011;7652;53.584;9.998;2023-04-03T07:31:23;1.67;;;0.73;;
15102;SDS011;7652;53.584;9.998;2023-04-03T07:34:27;2.37;;;1.30;;
15102;SDS011;7652;53.584;9.998;2023-04-03T07:37:30;3.53;;;1.30;;
15102;SDS011;7652;53.584;9.998;2023-04-03T07:40:35;2.53;;;0.90;;
15102;SDS011;7652;53.584;9.998;2023-04-03T07:43:39;1.53;;;0.90;;
15102;SDS011;7652;53.584;9.998;2023-04-03T07:46:43;1.87;;;1.13;;
15102;SDS011;7652;53.584;9.998;2023-04-03T07:49:46;1.30;;;1.00;;
15102;SDS011;7652;53.584;9.998;2023-04-03T07:52:49;4.20;;;1.57;;
15102;SDS011;7652;53.584;9.998;2023-04-03T07:55:56;2.17;;;0.80;;
15102;SDS011;7652;53.584;9.998;2023-04-03T07:58:59;3.83;;;1.10;;
15102;SDS011;7652;53.584;9.998;2023-04-03T08:02:02;2.10;;;1.10;;
15102;SDS011;7652;53.584;9.998;2023-04-03T08:05:06;2.70;;;1.00;;
15102;SDS011;7652;53.584;9.998;2023-04-03T08:08:10;4.43;;;1.10;;
15102;SDS011;7652;53.584;9.998;2023-04-03T08:11:16;2.90;;;1.23;;
15102;SDS011;7652;53.584;9.998;2023-04-03T08:14:20;2.40;;;1.17;;
15102;SDS011;7652;53.584;9.998;2023-04-03T08:17:23;2.17;;;1.00;;
15102;SDS011;7652;53.584;9.998;2023-04-03T08:20:26;3.83;;;1.20;;
15102;SDS011;7652;53.584;9.998;2023-04-03T08:23:29;2.00;;;1.00;;
15102;SDS011;7652;53.584;9.998;2023-04-03T08:26:34;2.27;;;0.90;;
15102;SDS011;7652;53.584;9.998;2023-04-03T08:29:37;2.30;;;1.10;;
15102;SDS011;7652;53.584;9.998;2023-04-03T08:32:41;2.83;;;1.10;;
15102;SDS011;7652;53.584;9.998;2023-04-03T08:35:45;3.87;;;0.93;;
15102;SDS011;7652;53.584;9.998;2023-04-03T08:38:48;2.60;;;1.10;;
15102;SDS011;7652;53.584;9.998;2023-04-03T08:41:54;2.53;;;0.80;;
15102;SDS011;7652;53.584;9.998;2023-04-03T08:45:01;2.73;;;1.10;;
15102;SDS011;7652;53.584;9.998;2023-04-03T08:48:12;2.33;;;0.80;;
15102;SDS011;7652;53.584;9.998;2023-04-03T08:51:19;0.93;;;0.60;;
15102;SDS011;7652;53.584;9.998;2023-04-03T08:54:24;3.00;;;0.73;;
15102;SDS011;7652;53.584;9.998;2023-04-03T08:57:36;2.27;;;1.30;;
15102;SDS011;7652;53.584;9.998;2023-04-03T09:00:44;2.67;;;1.17;;
15102;SDS011;7652;53.584;9.998;2023-04-03T09:03:49;2.17;;;0.90;;
15102;SDS011;7652;53.584;9.998;2023-04-03T09:06:54;1.23;;;0.90;;
15102;SDS011;7652;53.584;9.998;2023-04-03T09:10:01;1.53;;;0.67;;
15102;SDS011;7652;53.584;9.998;2023-04-03T09:13:08;2.43;;;0.90;;
15102;SDS011;7652;53.584;9.998;2023-04-03T09:16:20;3.03;;;1.40;;
15102;SDS011;7652;53.584;9.998;2023-04-03T09:19:32;2.10;;;0.90;;
15102;SDS011;7652;53.584;9.998;2023-04-03T09:22:40;1.33;;;0.90;;
15102;SDS011;7652;53.584;9.998;2023-04-03T09:25:53;2.53;;;1.00;;
15102;SDS011;7652;53.584;9.998;2023-04-03T09:29:06;2.57;;;0.87;;
15102;SDS011;7652;53.584;9.998;2023-04-03T09:32:18;2.27;;;0.80;;
15102;SDS011;7652;53.584;9.998;2023-04-03T09:35:25;1.33;;;1.20;;
15102;SDS011;7652;53.584;9.998;2023-04-03T09:38:44;1.00;;;0.63;;
15102;SDS011;7652;53.584;9.998;2023-04-03T09:41:58;3.37;;;1.00;;
15102;SDS011;7652;53.584;9.998;2023-04-03T09:45:05;1.53;;;0.60;;
15102;SDS011;7652;53.584;9.998;2023-04-03T09:48:24;0.90;;;0.70;;
15102;SDS011;7652;53.584;9.998;2023-04-03T09:51:28;2.40;;;0.60;;
15102;SDS011;7652;53.584;9.998;2023-04-03T09:54:34;4.23;;;0.90;;
15102;SDS011;7652;53.584;9.998;2023-04-03T09:57:41;3.00;;;1.00;;
15102;SDS011;7652;53.584;9.998;2023-04-03T10:00:45;3.10;;;0.93;;
15102;SDS011;7652;53.584;9.998;2023-04-03T10:04:04;2.03;;;0.90;;
15102;SDS011;7652;53.584;9.998;2023-04-03T10:07:32;1.40;;;0.70;;
15102;SDS011;7652;53.584;9.998;2023-04-03T10:10:37;1.47;;;0.83;;
15102;SDS011;7652;53.584;9.998;2023-04-03T10:13:50;2.77;;;0.77;;
15102;SDS011;7652;53.584;9.998;2023-04-03T10:16:59;1.07;;;0.80;;
15102;SDS011;7652;53.584;9.998;2023-04-03T10:20:18;1.87;;;0.70;;
15102;SDS011;7652;53.584;9.998;2023-04-03T10:23:30;1.30;;;0.70;;
15102;SDS011;7652;53.584;9.998;2023-04-03T10:26:39;1.77;;;0.50;;
15102;SDS011;7652;53.584;9.998;2023-04-03T10:29:49;2.70;;;0.70;;
15102;SDS011;7652;53.584;9.998;2023-04-03T10:33:01;1.80;;;0.60;;
15102;SDS011;7652;53.584;9.998;2023-04-03T10:36:17;0.93;;;0.60;;
15102;SDS011;7652;53.584;9.998;2023-04-03T10:39:28;0.90;;;0.70;;
15102;SDS011;7652;53.584;9.998;2023-04-03T10:42:39;1.70;;;0.60;;
15102;SDS011;7652;53.584;9.998;2023-04-03T10:45:53;0.77;;;0.70;;
15102;SDS011;7652;53.584;9.998;2023-04-03T10:49:05;0.90;;;0.60;;
15102;SDS011;7652;53.584;9.998;2023-04-03T10:52:20;1.47;;;0.70;;
15102;SDS011;7652;53.584;9.998;2023-04-03T10:55:30;1.90;;;1.00;;
15102;SDS011;7652;53.584;9.998;2023-04-03T10:58:40;1.37;;;0.80;;
15102;SDS011;7652;53.584;9.998;2023-04-03T11:01:48;1.50;;;0.83;;
15102;SDS011;7652;53.584;9.998;2023-04-03T11:04:56;2.37;;;0.90;;
15102;SDS011;7652;53.584;9.998;2023-04-03T11:08:04;1.37;;;0.83;;
15102;SDS011;7652;53.584;9.998;2023-04-03T11:11:15;1.53;;;0.70;;
15102;SDS011;7652;53.584;9.998;2023-04-03T11:14:24;2.20;;;1.00;;
15102;SDS011;7652;53.584;9.998;2023-04-03T11:17:31;1.40;;;0.80;;
15102;SDS011;7652;53.584;9.998;2023-04-03T11:20:40;1.70;;;0.90;;
15102;SDS011;7652;53.584;9.998;2023-04-03T11:23:47;1.17;;;0.73;;
15102;SDS011;7652;53.584;9.998;2023-04-03T11:26:50;2.03;;;0.90;;
15102;SDS011;7652;53.584;9.998;2023-04-03T11:29:56;1.83;;;0.97;;
15102;SDS011;7652;53.584;9.998;2023-04-03T11:33:13;4.60;;;1.30;;
15102;SDS011;7652;53.584;9.998;2023-04-03T11:36:44;0.90;;;0.80;;
15102;SDS011;7652;53.584;9.998;2023-04-03T11:39:52;1.63;;;0.90;;
15102;SDS011;7652;53.584;9.998;2023-04-03T11:43:02;2.07;;;1.07;;
15102;SDS011;7652;53.584;9.998;2023-04-03T11:46:08;1.00;;;0.90;;
15102;SDS011;7652;53.584;9.998;2023-04-03T11:49:32;2.27;;;1.20;;
15102;SDS011;7652;53.584;9.998;2023-04-03T11:53:09;1.23;;;0.80;;
15102;SDS011;7652;53.584;9.998;2023-04-03T11:56:38;2.67;;;1.03;;
15102;SDS011;7652;53.584;9.998;2023-04-03T11:59:43;0.67;;;0.60;;
15102;SDS011;7652;53.584;9.998;2023-04-03T12:02:46;2.77;;;0.93;;
15102;SDS011;7652;53.584;9.998;2023-04-03T12:05:55;1.63;;;0.90;;
15102;SDS011;7652;53.584;9.998;2023-04-03T12:09:01;2.37;;;0.97;;
15102;SDS011;7652;53.584;9.998;2023-04-03T12:18:59;2.20;;;1.03;;
15102;SDS011;7652;53.584;9.998;2023-04-03T12:22:08;1.90;;;1.20;;
15102;SDS011;7652;53.584;9.998;2023-04-03T12:28:49;2.30;;;1.00;;
15102;SDS011;7652;53.584;9.998;2023-04-03T12:31:56;1.77;;;1.00;;
15102;SDS011;7652;53.584;9.998;2023-04-03T12:35:17;1.40;;;1.17;;
15102;SDS011;7652;53.584;9.998;2023-04-03T12:38:33;1.50;;;1.03;;
15102;SDS011;7652;53.584;9.998;2023-04-03T12:41:51;2.03;;;0.83;;
15102;SDS011;7652;53.584;9.998;2023-04-03T12:45:01;1.20;;;0.90;;
15102;SDS011;7652;53.584;9.998;2023-04-03T12:48:14;1.30;;;1.00;;
15102;SDS011;7652;53.584;9.998;2023-04-03T12:51:18;1.30;;;0.80;;
15102;SDS011;7652;53.584;9.998;2023-04-03T12:54:26;1.33;;;1.00;;
15102;SDS011;7652;53.584;9.998;2023-04-03T12:57:34;1.83;;;0.83;;
15102;SDS011;7652;53.584;9.998;2023-04-03T13:00:38;2.63;;;0.80;;
15102;SDS011;7652;53.584;9.998;2023-04-03T13:03:42;2.00;;;0.80;;
15102;SDS011;7652;53.584;9.998;2023-04-03T13:06:47;1.43;;;0.60;;
15102;SDS011;7652;53.584;9.998;2023-04-03T13:10:04;1.70;;;0.77;;
15102;SDS011;7652;53.584;9.998;2023-04-03T13:13:19;1.87;;;0.90;;
15102;SDS011;7652;53.584;9.998;2023-04-03T13:16:24;3.27;;;1.10;;
15102;SDS011;7652;53.584;9.998;2023-04-03T13:19:27;1.03;;;0.80;;
15102;SDS011;7652;53.584;9.998;2023-04-03T13:22:32;1.20;;;0.70;;
15102;SDS011;7652;53.584;9.998;2023-04-03T13:25:41;2.33;;;0.90;;
15102;SDS011;7652;53.584;9.998;2023-04-03T13:28:47;2.10;;;1.30;;
15102;SDS011;7652;53.584;9.998;2023-04-03T13:31:54;2.07;;;0.83;;
15102;SDS011;7652;53.584;9.998;2023-04-03T13:34:58;2.80;;;0.90;;
15102;SDS011;7652;53.584;9.998;2023-04-03T13:38:23;1.80;;;0.90;;
15102;SDS011;7652;53.584;9.998;2023-04-03T13:41:29;2.67;;;1.00;;
15102;SDS011;7652;53.584;9.998;2023-04-03T13:44:35;0.77;;;0.70;;
15102;SDS011;7652;53.584;9.998;2023-04-03T13:47:41;1.70;;;0.93;;
15102;SDS011;7652;53.584;9.998;2023-04-03T13:50:50;3.63;;;0.77;;
15102;SDS011;7652;53.584;9.998;2023-04-03T13:54:00;1.57;;;0.80;;
15102;SDS011;7652;53.584;9.998;2023-04-03T13:57:15;2.67;;;1.20;;
15102;SDS011;7652;53.584;9.998;2023-04-03T14:00:21;1.13;;;0.70;;
15102;SDS011;7652;53.584;9.998;2023-04-03T14:03:39;1.63;;;0.90;;
15102;SDS011;7652;53.584;9.998;2023-04-03T14:06:45;1.60;;;0.83;;
15102;SDS011;7652;53.584;9.998;2023-04-03T14:09:48;1.07;;;0.80;;
15102;SDS011;7652;53.584;9.998;2023-04-03T14:12:52;1.20;;;0.70;;
15102;SDS011;7652;53.584;9.998;2023-04-03T14:15:56;3.17;;;0.77;;
15102;SDS011;7652;53.584;9.998;2023-04-03T14:19:17;0.90;;;0.70;;
15102;SDS011;7652;53.584;9.998;2023-04-03T14:22:23;0.80;;;0.80;;
15102;SDS011;7652;53.584;9.998;2023-04-03T14:25:27;2.63;;;0.90;;
15102;SDS011;7652;53.584;9.998;2023-04-03T14:28:31;2.53;;;1.00;;
15102;SDS011;7652;53.584;9.998;2023-04-03T14:31:36;1.23;;;0.87;;
15102;SDS011;7652;53.584;9.998;2023-04-03T14:34:39;1.33;;;0.80;;
15102;SDS011;7652;53.584;9.998;2023-04-03T14:37:43;2.47;;;0.87;;
15102;SDS011;7652;53.584;9.998;2023-04-03T14:40:46;1.00;;;0.90;;
15102;SDS011;7652;53.584;9.998;2023-04-03T14:43:49;1.43;;;0.80;;
15102;SDS011;7652;53.584;9.998;2023-04-03T14:46:54;2.00;;;0.77;;
15102;SDS011;7652;53.584;9.998;2023-04-03T14:49:58;2.07;;;0.60;;
15102;SDS011;7652;53.584;9.998;2023-04-03T14:53:02;2.07;;;1.07;;
15102;SDS011;7652;53.584;9.998;2023-04-03T14:56:10;2.17;;;0.60;;
15102;SDS011;7652;53.584;9.998;2023-04-03T14:59:14;1.90;;;0.97;;
15102;SDS011;7652;53.584;9.998;2023-04-03T15:02:27;3.13;;;0.90;;
15102;SDS011;7652;53.584;9.998;2023-04-03T15:05:32;1.03;;;0.80;;
15102;SDS011;7652;53.584;9.998;2023-04-03T15:08:34;1.67;;;0.93;;
15102;SDS011;7652;53.584;9.998;2023-04-03T15:11:38;1.93;;;0.87;;
15102;SDS011;7652;53.584;9.998;2023-04-03T15:14:41;3.47;;;1.03;;
15102;SDS011;7652;53.584;9.998;2023-04-03T15:17:55;1.70;;;0.87;;
15102;SDS011;7652;53.584;9.998;2023-04-03T15:20:59;2.23;;;1.13;;
15102;SDS011;7652;53.584;9.998;2023-04-03T15:24:03;3.00;;;0.93;;
15102;SDS011;7652;53.584;9.998;2023-04-03T15:27:06;3.27;;;1.40;;
15102;SDS011;7652;53.584;9.998;2023-04-03T15:30:11;1.90;;;0.70;;
15102;SDS011;7652;53.584;9.998;2023-04-03T15:33:18;2.57;;;0.90;;
15102;SDS011;7652;53.584;9.998;2023-04-03T15:36:21;2.73;;;0.90;;
15102;SDS011;7652;53.584;9.998;2023-04-03T15:39:35;1.10;;;0.90;;
15102;SDS011;7652;53.584;9.998;2023-04-03T15:42:38;2.20;;;0.90;;
15102;SDS011;7652;53.584;9.998;2023-04-03T15:45:41;2.00;;;1.00;;
15102;SDS011;7652;53.584;9.998;2023-04-03T15:48:46;3.47;;;1.10;;
15102;SDS011;7652;53.584;9.998;2023-04-03T15:51:50;2.90;;;1.20;;
15102;SDS011;7652;53.584;9.998;2023-04-03T15:54:53;1.17;;;1.03;;
15102;SDS011;7652;53.584;9.998;2023-04-03T15:57:56;1.30;;;1.00;;
15102;SDS011;7652;53.584;9.998;2023-04-03T16:01:00;3.23;;;0.70;;
15102;SDS011;7652;53.584;9.998;2023-04-03T16:04:05;2.43;;;0.90;;
15102;SDS011;7652;53.584;9.998;2023-04-03T16:07:10;3.37;;;0.73;;
15102;SDS011;7652;53.584;9.998;2023-04-03T16:10:14;3.83;;;1.00;;
15102;SDS011;7652;53.584;9.998;2023-04-03T16:13:19;1.70;;;0.90;;
15102;SDS011;7652;53.584;9.998;2023-04-03T16:16:22;1.40;;;0.90;;
15102;SDS011;7652;53.584;9.998;2023-04-03T16:19:28;3.97;;;1.27;;
15102;SDS011;7652;53.584;9.998;2023-04-03T16:22:31;4.43;;;1.00;;
15102;SDS011;7652;53.584;9.998;2023-04-03T16:25:35;1.97;;;1.00;;
15102;SDS011;7652;53.584;9.998;2023-04-03T16:28:39;2.80;;;0.80;;
15102;SDS011;7652;53.584;9.998;2023-04-03T16:31:42;3.60;;;1.20;;
15102;SDS011;7652;53.584;9.998;2023-04-03T16:34:46;1.87;;;0.97;;
15102;SDS011;7652;53.584;9.998;2023-04-03T16:37:49;2.20;;;1.03;;
15102;SDS011;7652;53.584;9.998;2023-04-03T16:40:52;1.73;;;1.00;;
15102;SDS011;7652;53.584;9.998;2023-04-03T16:43:58;5.20;;;1.10;;
15102;SDS011;7652;53.584;9.998;2023-04-03T16:47:01;3.80;;;0.97;;
15102;SDS011;7652;53.584;9.998;2023-04-03T16:50:06;2.40;;;1.00;;
15102;SDS011;7652;53.584;9.998;2023-04-03T16:53:10;1.20;;;0.90;;
15102;SDS011;7652;53.584;9.998;2023-04-03T16:56:13;2.00;;;0.90;;
15102;SDS011;7652;53.584;9.998;2023-04-03T16:59:16;4.60;;;1.10;;
15102;SDS011;7652;53.584;9.998;2023-04-03T17:02:20;3.33;;;1.03;;
15102;SDS011;7652;53.584;9.998;2023-04-03T17:05:27;1.83;;;0.90;;
15102;SDS011;7652;53.584;9.998;2023-04-03T17:08:30;2.27;;;1.20;;
15102;SDS011;7652;53.584;9.998;2023-04-03T17:11:33;2.33;;;1.10;;
15102;SDS011;7652;53.584;9.998;2023-04-03T17:14:37;3.23;;;0.90;;
15102;SDS011;7652;53.584;9.998;2023-04-03T17:17:40;3.53;;;1.10;;
15102;SDS011;7652;53.584;9.998;2023-04-03T17:20:44;1.93;;;1.00;;
15102;SDS011;7652;53.584;9.998;2023-04-03T17:23:49;4.73;;;1.57;;
15102;SDS011;7652;53.584;9.998;2023-04-03T17:26:54;2.17;;;1.17;;
15102;SDS011;7652;53.584;9.998;2023-04-03T17:29:57;4.27;;;1.03;;
15102;SDS011;7652;53.584;9.998;2023-04-03T17:33:01;1.50;;;1.10;;
15102;SDS011;7652;53.584;9.998;2023-04-03T17:36:05;1.97;;;0.97;;
15102;SDS011;7652;53.584;9.998;2023-04-03T17:39:09;4.27;;;1.37;;
15102;SDS011;7652;53.584;9.998;2023-04-03T17:42:12;3.30;;;1.33;;
15102;SDS011;7652;53.584;9.998;2023-04-03T17:45:16;5.93;;;2.40;;
15102;SDS011;7652;53.584;9.998;2023-04-03T17:48:19;1.53;;;1.00;;
15102;SDS011;7652;53.584;9.998;2023-04-03T17:51:24;4.70;;;1.27;;
15102;SDS011;7652;53.584;9.998;2023-04-03T17:54:27;2.97;;;1.37;;
15102;SDS011;7652;53.584;9.998;2023-04-03T17:57:30;3.27;;;1.70;;
15102;SDS011;7652;53.584;9.998;2023-04-03T18:00:33;2.87;;;1.50;;
15102;SDS011;7652;53.584;9.998;2023-04-03T18:03:38;5.80;;;1.47;;
15102;SDS011;7652;53.584;9.998;2023-04-03T18:06:44;2.33;;;1.17;;
15102;SDS011;7652;53.584;9.998;2023-04-03T18:09:50;2.70;;;1.27;;
15102;SDS011;7652;53.584;9.998;2023-04-03T18:12:54;5.10;;;1.33;;
15102;SDS011;7652;53.584;9.998;2023-04-03T18:15:58;2.13;;;1.50;;
15102;SDS011;7652;53.584;9.998;2023-04-03T18:19:01;1.40;;;1.20;;
15102;SDS011;7652;53.584;9.998;2023-04-03T18:22:24;4.83;;;1.50;;
15102;SDS011;7652;53.584;9.998;2023-04-03T18:25:27;2.20;;;1.20;;
15102;SDS011;7652;53.584;9.998;2023-04-03T18:28:36;2.13;;;1.50;;
15102;SDS011;7652;53.584;9.998;2023-04-03T18:31:41;3.00;;;1.67;;
15102;SDS011;7652;53.584;9.998;2023-04-03T18:34:47;4.93;;;1.00;;
15102;SDS011;7652;53.584;9.998;2023-04-03T18:37:52;3.00;;;1.40;;
15102;SDS011;7652;53.584;9.998;2023-04-03T18:40:55;3.53;;;1.00;;
15102;SDS011;7652;53.584;9.998;2023-04-03T18:43:58;3.00;;;1.40;;
15102;SDS011;7652;53.584;9.998;2023-04-03T18:47:03;4.77;;;1.50;;
15102;SDS011;7652;53.584;9.998;2023-04-03T18:50:07;3.87;;;1.57;;
15102;SDS011;7652;53.584;9.998;2023-04-03T18:53:12;14.47;;;6.00;;
15102;SDS011;7652;53.584;9.998;2023-04-03T18:56:15;7.43;;;3.13;;
15102;SDS011;7652;53.584;9.998;2023-04-03T18:59:18;2.83;;;1.93;;
15102;SDS011;7652;53.584;9.998;2023-04-03T19:02:22;2.47;;;1.30;;
15102;SDS011;7652;53.584;9.998;2023-04-03T19:05:26;4.73;;;1.80;;